Costa Fortuna — IBNY — position and weather

sailwx.info

Track history (hours):
 
Tides and Currents Weather Stations Pressure Air Temp Water Temp Dewpoint Dewpoint Depression Visibility Wind Speed Wind Dir Waves Ship Positions

Costa Fortuna

Last reported at 2019-Sep-21 23:30 UTC. Time now 2019-Sep-21 23:37 UTC.
Position N 41°44' E 003°09'.

Length 272 m; draft 8.3 m.

Type: Ship. MMSI: 247094800.

Date/timePositionNaut miles runAvg speedWind from/ knotsBaromVisibWave heightAir tempDewpointWater temp
2019-Sep-21 23:30N 41°44' E 003°09'816.5
2019-Sep-21 23:00N 41°49' E 003°18'163 7.1
2019-Sep-21 00:11N 43°01' E 006°36'317.9
2019-Sep-21 00:00N 43°03' E 006°39'917.9
2019-Sep-20 23:31N 43°08' E 006°49'917.8
2019-Sep-20 23:00N 43°12' E 007°00'918.3
2019-Sep-20 22:30N 43°17' E 007°11'918.4
2019-Sep-20 22:00N 43°22' E 007°21'918.5
2019-Sep-20 21:30N 43°28' E 007°31'918.5
2019-Sep-20 21:00N 43°33' E 007°42'918.4
2019-Sep-20 20:30N 43°39' E 007°52'918.3
2019-Sep-20 20:00N 43°45' E 008°01'918.5
2019-Sep-20 19:31N 43°51' E 008°11'918.2
2019-Sep-20 19:00N 43°57' E 008°21'918.0
2019-Sep-20 18:30N 44°03' E 008°30'918.0
2019-Sep-20 18:01N 44°08' E 008°40'917.6
2019-Sep-20 17:30N 44°14' E 008°49'613.0
2019-Sep-20 17:00N 44°18' E 008°56'510.3
2019-Sep-20 16:30N 44°23' E 008°56'1 2.9
2019-Sep-20 16:00N 44°25' E 008°55'0 0.0
2019-Sep-20 15:30N 44°25' E 008°55'0 0.0
2019-Sep-20 15:00N 44°25' E 008°55'0 0.0
2019-Sep-20 14:30N 44°25' E 008°55'0 0.0
2019-Sep-20 14:00N 44°25' E 008°55'0 0.0
2019-Sep-20 13:30N 44°25' E 008°55'0 0.0
2019-Sep-20 12:59N 44°25' E 008°55'0 0.0
2019-Sep-20 12:30N 44°25' E 008°55'0 0.0
2019-Sep-20 12:00N 44°25' E 008°55'0 0.0
2019-Sep-20 11:30N 44°25' E 008°55'0 0.0
2019-Sep-20 11:00N 44°25' E 008°55'0 0.0
2019-Sep-20 10:30N 44°25' E 008°55'0 0.0
2019-Sep-20 10:00N 44°25' E 008°55'0 0.0
2019-Sep-20 09:30N 44°25' E 008°55'0 0.0
2019-Sep-20 09:00N 44°25' E 008°55'0 0.0
2019-Sep-20 08:30N 44°25' E 008°55'0 0.0
2019-Sep-20 08:00N 44°25' E 008°55'0 0.0
2019-Sep-20 07:29N 44°25' E 008°55'0 0.0
2019-Sep-20 07:00N 44°25' E 008°55'0 0.0
2019-Sep-20 06:31N 44°25' E 008°55'1 1.6
2019-Sep-20 06:01N 44°24' E 008°55'3 5.3
2019-Sep-20 05:31N 44°22' E 008°58'510.7
2019-Sep-20 05:01N 44°17' E 009°00'5293.8
2019-Sep-20 05:00N 44°12' E 009°00'3 5.2 300 / 191020.010.8 20.018.523.5
2019-Sep-20 04:31N 44°11' E 009°03'611.8
2019-Sep-20 04:00N 44°05' E 009°06'611.8
2019-Sep-20 03:31N 43°60' E 009°09'714.2
2019-Sep-20 03:01N 43°53' E 009°12'145.1
2019-Sep-20 03:00N 43°54' E 009°12'919.2 240 / 101020.010.8 22.017.523.2
2019-Sep-20 02:31N 43°45' E 009°16'917.0
2019-Sep-20 02:01N 43°37' E 009°20'816.7
2019-Sep-20 01:31N 43°30' E 009°25'816.8
2019-Sep-20 01:01N 43°22' E 009°29'816.8
2019-Sep-20 00:31N 43°14' E 009°35'816.6
2019-Sep-20 00:01N 43°06' E 009°37'6350.2
2019-Sep-20 00:00N 43°12' E 009°36'1429.4 070 / 251019.010.8 23.020.120.0
2019-Sep-19 23:31N 42°58' E 009°40'1020.3
2019-Sep-19 23:00N 42°48' E 009°36'5910.7 060 / 231019.010.8 23.020.120.0
2019-Sep-19 22:59N 42°50' E 009°42'5316.6
2019-Sep-19 19:46N 41°56' E 009°46'416.2
2019-Sep-19 19:30N 41°52' E 009°46'59 7.9
2019-Sep-19 12:00N 40°54' E 009°30'0 0.0 270 / 51016.010.8 27.022.821.0
2019-Sep-19 11:00N 40°54' E 009°30'0 0.0 090 / 81016.010.8 27.022.821.0
2019-Sep-19 06:00N 40°54' E 009°30'18 6.0 210 / 51013.010.8 22.019.022.0
2019-Sep-19 03:00N 41°12' E 009°30'4615.5 230 / 131014.010.8 24.022.625.3
2019-Sep-19 00:03N 41°13' E 008°29'587.2
2019-Sep-19 00:00N 41°12' E 008°36'6967.2 320 / 51015.0 5.4 24.022.620.0
2019-Sep-18 23:59N 41°13' E 008°28'1818.0
2019-Sep-18 23:00N 41°06' E 008°06'8416.8 320 / 41015.0 5.4 24.022.620.0
2019-Sep-18 18:00N 40°24' E 006°30'4120.4 1022.0 5.4
2019-Sep-18 16:00N 39°54' E 005°54'8817.7 340 / 111015.0 5.4 25.022.2
2019-Sep-18 11:00N 39°24' E 004°06'1719.0 300 / 81016.010.8 25.023.621.0
2019-Sep-18 10:07N 39°21' E 003°45'431.6
2019-Sep-18 10:00N 39°18' E 003°48'5474.0 260 / 31016.010.8 25.023.621.0
2019-Sep-18 09:59N 39°20' E 003°42'918.2
2019-Sep-18 09:30N 39°16' E 003°32'918.0
2019-Sep-18 09:00N 39°13' E 003°21'917.8
2019-Sep-18 08:30N 39°09' E 003°11'917.7
2019-Sep-18 08:00N 39°06' E 003°00'917.5
2019-Sep-18 07:30N 39°03' E 002°50'917.7
2019-Sep-18 07:00N 39°01' E 002°38'917.6
2019-Sep-18 06:30N 39°00' E 002°27'917.4
2019-Sep-18 06:01N 38°59' E 002°16'917.5
2019-Sep-18 05:30N 38°57' E 002°05'1017.7
2019-Sep-18 04:56N 38°56' E 001°52'817.8
2019-Sep-18 04:30N 38°55' E 001°42'817.3
2019-Sep-18 04:00N 38°54' E 001°32'4 6.6
2019-Sep-18 03:28N 38°54' E 001°27'0 0.0
2019-Sep-18 02:55N 38°54' E 001°27'0 0.0
2019-Sep-18 02:28N 38°54' E 001°27'0 0.0
2019-Sep-18 01:58N 38°54' E 001°27'0 0.0
2019-Sep-18 01:25N 38°54' E 001°27'2 5.5
2019-Sep-18 01:00N 38°54' E 001°24'272.6 330 / 71016.010.8 24.022.621.0
2019-Sep-18 00:58N 38°54' E 001°27'0 0.0
2019-Sep-18 00:28N 38°54' E 001°27'0 0.0
2019-Sep-17 23:58N 38°54' E 001°27'0 0.0
2019-Sep-17 23:28N 38°54' E 001°27'2 5.0
2019-Sep-17 23:00N 38°54' E 001°24'273.8 340 / 101016.010.8 24.022.621.0
2019-Sep-17 22:58N 38°54' E 001°27'0 0.0
2019-Sep-17 22:31N 38°54' E 001°27'0 0.0
2019-Sep-17 21:58N 38°54' E 001°27'0 0.0
2019-Sep-17 21:28N 38°54' E 001°27'0 0.0
2019-Sep-17 20:58N 38°54' E 001°27'0 0.0
2019-Sep-17 20:25N 38°54' E 001°27'0 0.0
2019-Sep-17 19:58N 38°54' E 001°27'0 0.0
2019-Sep-17 19:31N 38°54' E 001°27'0 0.0
2019-Sep-17 18:58N 38°54' E 001°27'0 0.0
2019-Sep-17 18:28N 38°54' E 001°27'0 0.0
2019-Sep-17 17:58N 38°54' E 001°27'0 0.0
2019-Sep-17 17:28N 38°54' E 001°27'2 5.0
2019-Sep-17 17:00N 38°54' E 001°24'272.0 1014.0 5.4 24.019.624.5
2019-Sep-17 16:58N 38°54' E 001°27'0 0.0
2019-Sep-17 16:25N 38°54' E 001°27'0 0.0
2019-Sep-17 15:52N 38°54' E 001°27'0 0.0
2019-Sep-17 15:28N 38°54' E 001°27'2 5.0
2019-Sep-17 15:00N 38°54' E 001°24'272.6 100 / 101016.010.8 24.019.625.8
2019-Sep-17 14:58N 38°54' E 001°27'0 0.0
2019-Sep-17 14:28N 38°54' E 001°27'0 0.0
2019-Sep-17 13:58N 38°54' E 001°27'0 0.0
2019-Sep-17 13:25N 38°54' E 001°27'2 5.5
2019-Sep-17 13:00N 38°54' E 001°24'273.2 070 / 61017.010.8 27.025.721.0
2019-Sep-17 12:58N 38°54' E 001°27'0 0.0
2019-Sep-17 12:31N 38°54' E 001°27'0 0.0
2019-Sep-17 11:58N 38°54' E 001°27'0 0.0
2019-Sep-17 11:28N 38°54' E 001°27'2 5.0
2019-Sep-17 11:00N 38°54' E 001°24'277.3 130 / 61017.010.8 26.023.222.0
2019-Sep-17 10:58N 38°54' E 001°27'0 0.0
2019-Sep-17 10:28N 38°54' E 001°27'0 0.0
2019-Sep-17 09:58N 38°54' E 001°27'0 0.0
2019-Sep-17 09:28N 38°54' E 001°27'0 0.0
2019-Sep-17 08:58N 38°54' E 001°27'0 0.0
2019-Sep-17 08:28N 38°54' E 001°27'2 5.0
2019-Sep-17 08:00N 38°54' E 001°24'275.2 060 / 91015.0 5.4 24.019.625.0
2019-Sep-17 07:58N 38°54' E 001°27'0 0.0
2019-Sep-17 07:28N 38°54' E 001°27'0 0.0
2019-Sep-17 06:58N 38°54' E 001°27'0 0.0
2019-Sep-17 06:28N 38°54' E 001°27'0 0.4
2019-Sep-17 05:54N 38°54' E 001°27'410.0
2019-Sep-17 05:30N 38°53' E 001°32'714.7
2019-Sep-17 05:00N 38°52' E 001°41'612.5
2019-Sep-17 04:30N 38°51' E 001°49'3 5.9
2019-Sep-17 03:57N 38°51' E 001°53'1 2.6
2019-Sep-17 03:26N 38°51' E 001°55'3 8.0
2019-Sep-17 03:00N 38°48' E 001°54'2211.6 260 / 91016.010.8 24.022.624.5
2019-Sep-17 01:06N 38°59' E 002°19'55497.9
2019-Sep-17 01:00N 39°54' E 002°18'54855.1 090 / 131018.0 5.4 24.021.120.0
2019-Sep-17 00:56N 38°60' E 002°21'610.8
2019-Sep-17 00:24N 39°03' E 002°27'410.7
2019-Sep-17 00:00N 39°05' E 002°31'510.3
2019-Sep-16 23:30N 39°10' E 002°34'510.4
2019-Sep-16 23:00N 39°15' E 002°37'10897.3
2019-Sep-16 23:00N 39°06' E 002°30'1531.4 060 / 41018.010.8 24.022.620.0
2019-Sep-16 22:30N 39°20' E 002°39'510.7
2019-Sep-16 22:00N 39°25' E 002°39'510.7
2019-Sep-16 21:30N 39°31' E 002°39'3 5.2
2019-Sep-16 21:00N 39°33' E 002°38'0 0.0
2019-Sep-16 20:30N 39°33' E 002°38'0 0.0
2019-Sep-16 20:00N 39°33' E 002°38'0 0.0
2019-Sep-16 19:30N 39°33' E 002°38'0 0.0
2019-Sep-16 18:56N 39°33' E 002°38'0 0.0
2019-Sep-16 18:27N 39°33' E 002°38'0 0.0
2019-Sep-16 18:00N 39°33' E 002°38'0 0.0
2019-Sep-16 17:30N 39°33' E 002°38'0 0.0
2019-Sep-16 17:00N 39°33' E 002°38'0 0.0
2019-Sep-16 16:29N 39°33' E 002°38'0 0.0
2019-Sep-16 16:00N 39°33' E 002°38'0 0.0
2019-Sep-16 15:30N 39°33' E 002°38'0 0.0
2019-Sep-16 15:00N 39°33' E 002°38'0 0.0
2019-Sep-16 14:30N 39°33' E 002°38'0 0.0
2019-Sep-16 14:00N 39°33' E 002°38'0 0.0
2019-Sep-16 13:30N 39°33' E 002°38'0 0.0
2019-Sep-16 13:00N 39°33' E 002°38'0 0.0
2019-Sep-16 12:29N 39°33' E 002°38'0 0.0
2019-Sep-16 11:59N 39°33' E 002°38'0 0.0
2019-Sep-16 11:14N 39°33' E 002°38'1562.3
2019-Sep-16 11:00N 39°18' E 002°36'153226.1 090 / 121018.0 5.4 27.021.320.0
2019-Sep-16 10:59N 39°33' E 002°38'0 0.0
2019-Sep-16 10:29N 39°33' E 002°38'0 0.0
2019-Sep-16 09:56N 39°33' E 002°38'0 0.0
2019-Sep-16 09:29N 39°33' E 002°38'0 0.0
2019-Sep-16 08:59N 39°33' E 002°38'0 0.0
2019-Sep-16 08:30N 39°33' E 002°38'0 0.0
2019-Sep-16 08:00N 39°33' E 002°38'0 0.0
2019-Sep-16 06:24N 39°33' E 002°38'0 1.3
2019-Sep-16 06:00N 39°33' E 002°39'4332.6
2019-Sep-16 06:00N 39°30' E 002°36'3 6.6 360 / 131016.0 5.4 24.019.625.0
2019-Sep-16 05:30N 39°32' E 002°39'4 8.5
2019-Sep-16 05:00N 39°28' E 002°37'510.7
2019-Sep-16 04:30N 39°24' E 002°33'610.9
2019-Sep-16 04:00N 39°26' E 002°26'83557.4
2019-Sep-16 04:00N 39°24' E 002°36'1327.2 040 / 201017.010.8 24.019.624.8
2019-Sep-16 03:30N 39°29' E 002°20'612.4
2019-Sep-16 03:00N 39°30' E 002°12'1512.6 030 / 101017.010.8 24.019.625.0
2019-Sep-16 01:47N 39°44' E 002°06'5 6.3
2019-Sep-16 01:00N 39°42' E 002°00'8 7.6 030 / 181018.0 5.4 24.022.6
2019-Sep-16 00:00N 39°48' E 001°54'7114.3 040 / 221018.0 5.4 24.022.621.0
2019-Sep-15 19:00N 40°55' E 001°20'137806.6
2019-Sep-15 19:00N 40°42' E 001°24'2127.9 040 / 371017.010.8 23.020.125.0
2019-Sep-15 18:14N 41°02' E 001°15'832.9
2019-Sep-15 18:00N 40°54' E 001°18'1260.1 050 / 241018.010.8 23.020.125.0
2019-Sep-15 17:48N 41°05' E 001°13'0 0.4
2019-Sep-15 17:18N 41°05' E 001°13'110360.1
2019-Sep-15 17:00N 41°00' W 001°12'10918.1 090 / 261020.010.8 24.019.625.0
2019-Sep-15 11:00N 41°00' E 001°12'567.3 050 / 241022.010.8 25.019.120.0
2019-Sep-15 10:55N 41°05' E 001°13'1 0.1
2019-Sep-15 05:33N 41°05' E 001°12'1 5.0
2019-Sep-15 05:17N 41°03' E 001°13'311.4
2019-Sep-15 05:00N 41°00' E 001°12'6791.1 020 / 111022.010.8 22.020.523.8
2019-Sep-15 04:59N 41°03' E 001°19'816.4
2019-Sep-15 04:30N 41°04' E 001°29'815.4
2019-Sep-15 04:00N 41°05' E 001°39'713.4
2019-Sep-15 03:30N 41°06' E 001°48'714.0
2019-Sep-15 03:00N 41°07' E 001°57'7486.7
2019-Sep-15 03:00N 41°06' E 001°48'1429.2 040 / 141022.010.8 22.020.524.0
2019-Sep-15 02:30N 41°09' E 002°06'714.2
2019-Sep-15 02:00N 41°10' E 002°16'713.6
2019-Sep-15 01:30N 41°15' E 002°22'815.3
2019-Sep-15 01:00N 41°20' E 002°30'12730.6
2019-Sep-15 01:00N 41°12' E 002°18'2143.4 040 / 251023.027.0 21.019.520.0
2019-Sep-15 00:31N 41°26' E 002°39'917.8
2019-Sep-15 00:00N 41°31' E 002°49'1017.9
2019-Sep-14 23:28N 41°37' E 002°59'511.0
2019-Sep-14 23:00N 41°36' E 003°06'3422.2 010 / 111024.0 5.4 21.019.520.0
2019-Sep-14 21:27N 42°02' E 003°36'1419.5
2019-Sep-14 20:44N 42°12' E 003°49'419.2
2019-Sep-14 20:31N 42°15' E 003°53'918.9
2019-Sep-14 20:01N 42°22' E 004°02'918.6
2019-Sep-14 19:31N 42°28' E 004°11'918.5
2019-Sep-14 19:01N 42°35' E 004°20'15883.8
2019-Sep-14 19:00N 42°24' E 004°06'2449.8 060 / 91023.010.8 22.017.525.0
2019-Sep-14 18:30N 42°42' E 004°28'1 2.4
2019-Sep-14 18:00N 42°42' E 004°30'1817.8 140 / 91023.0 5.4 23.018.525.0
2019-Sep-14 17:00N 42°54' E 004°48'32 8.1 150 / 101024.010.8 26.021.825.3
2019-Sep-14 13:00N 43°18' E 005°18'3 2.8 270 / 81025.0 5.4 25.020.720.0
2019-Sep-14 11:55N 43°21' E 005°20'3 3.3
2019-Sep-14 11:00N 43°18' E 005°18'0 0.0 1025.0 5.4 24.019.621.0
2019-Sep-14 06:00N 43°18' E 005°18'2 1.7 1023.0 5.4 23.016.925.0
2019-Sep-14 04:38N 43°18' E 005°15'1 9.1
2019-Sep-14 04:31N 43°17' E 005°15'510.6
2019-Sep-14 04:00N 43°12' E 005°12'4218.9 050 / 91026.010.8 23.020.122.9
2019-Sep-14 03:58N 43°12' E 005°18'6 5.8
2019-Sep-14 03:00N 43°06' E 005°18'1843.7 330 / 61025.010.8 23.020.123.5
2019-Sep-14 02:35N 43°01' E 005°41'217.7
2019-Sep-14 02:29N 42°60' E 005°44'13 9.0
2019-Sep-14 01:00N 42°54' E 006°00'2243.4 270 / 81026.010.8 24.021.120.0
2019-Sep-14 00:29N 42°57' E 006°30'918.4
2019-Sep-14 00:00N 43°02' E 006°40'918.0
2019-Sep-13 23:30N 43°07' E 006°50'918.5
2019-Sep-13 23:01N 43°12' E 007°01'7434.2
2019-Sep-13 23:00N 43°06' E 006°54'1734.9 320 / 71026.010.8 24.021.120.0
2019-Sep-13 22:30N 43°17' E 007°11'918.7
2019-Sep-13 22:01N 43°23' E 007°22'918.5
2019-Sep-13 21:30N 43°28' E 007°32'918.5
2019-Sep-13 21:00N 43°33' E 007°42'918.5
2019-Sep-13 20:31N 43°39' E 007°52'918.4
2019-Sep-13 20:00N 43°45' E 008°02'4233.1
2019-Sep-13 20:00N 43°42' E 008°00'1326.1 030 / 131023.0 5.4 26.020.224.0
2019-Sep-13 19:31N 43°51' E 008°12'918.3
2019-Sep-13 19:01N 43°57' E 008°21'918.3
2019-Sep-13 18:30N 44°04' E 008°31'917.7
2019-Sep-13 18:01N 44°09' E 008°40'12696.9
2019-Sep-13 18:00N 44°00' E 008°30'2041.6 260 / 91023.0 5.4 26.020.224.0
2019-Sep-13 17:31N 44°15' E 008°49'611.5
2019-Sep-13 17:01N 44°18' E 008°56'8488.4
2019-Sep-13 17:00N 44°12' E 008°48'1326.5 220 / 141015.010.8 25.023.625.5
2019-Sep-13 16:31N 44°23' E 008°56'2 3.5
2019-Sep-13 15:59N 44°25' E 008°55'0 0.0
2019-Sep-13 15:29N 44°25' E 008°55'0 0.0
2019-Sep-13 14:59N 44°25' E 008°55'0 0.0
2019-Sep-13 14:29N 44°25' E 008°55'1 1.9
2019-Sep-13 14:00N 44°24' E 008°54'1179.6 150 / 61026.010.8 27.018.125.3
2019-Sep-13 13:59N 44°25' E 008°55'0 0.0
2019-Sep-13 13:29N 44°25' E 008°55'0 0.0
2019-Sep-13 12:59N 44°25' E 008°55'0 0.0
2019-Sep-13 12:29N 44°25' E 008°55'1 1.9
2019-Sep-13 12:00N 44°24' E 008°54'1155.1 160 / 101028.027.0 31.022.722.0
2019-Sep-13 11:59N 44°25' E 008°55'0 0.0
2019-Sep-13 11:29N 44°25' E 008°55'1 1.9
2019-Sep-13 11:00N 44°24' E 008°54'1162.5 160 / 101027.027.0 31.024.222.0
2019-Sep-13 10:59N 44°25' E 008°55'0 0.0
2019-Sep-13 10:29N 44°25' E 008°55'0 0.0
2019-Sep-13 09:59N 44°25' E 008°55'0 0.0
2019-Sep-13 09:29N 44°25' E 008°55'0 0.0
2019-Sep-13 08:59N 44°25' E 008°55'0 0.0
2019-Sep-13 08:29N 44°25' E 008°55'0 0.0
2019-Sep-13 07:59N 44°25' E 008°55'0 0.0
2019-Sep-13 07:29N 44°25' E 008°55'0 0.0
2019-Sep-13 06:59N 44°25' E 008°55'0 0.0
2019-Sep-13 06:29N 44°25' E 008°55'1 1.6
2019-Sep-13 06:00N 44°24' E 008°55'3 5.4
2019-Sep-13 05:30N 44°22' E 008°58'510.3
2019-Sep-13 05:00N 44°17' E 009°00'5367.2
2019-Sep-13 05:00N 44°12' E 009°00'2 4.6 320 / 11028.010.8 23.020.123.5
2019-Sep-13 04:31N 44°12' E 009°03'611.0
2019-Sep-13 04:00N 44°07' E 009°06'510.3
2019-Sep-13 03:31N 44°02' E 009°08'510.6
2019-Sep-13 03:00N 43°57' E 009°10'4294.3
2019-Sep-13 03:00N 43°54' E 009°06'613.4 250 / 41027.010.8 23.020.123.3
2019-Sep-13 02:30N 43°50' E 009°13'1717.4
2019-Sep-13 01:30N 43°34' E 009°22'917.3
2019-Sep-13 01:00N 43°26' E 009°26'3170.9
2019-Sep-13 01:00N 43°24' E 009°24'816.2 040 / 151026.027.0 25.019.120.0
2019-Sep-13 00:30N 43°18' E 009°31'917.8
2019-Sep-13 00:00N 43°09' E 009°35'917.9
2019-Sep-12 23:30N 43°01' E 009°39'917.5
2019-Sep-12 23:00N 42°52' E 009°42'6376.0
2019-Sep-12 23:00N 42°48' E 009°36'612.9 040 / 201026.027.0 24.019.620.0
2019-Sep-12 22:30N 42°44' E 009°42'917.0
2019-Sep-12 22:00N 42°35' E 009°43'917.1
2019-Sep-12 21:30N 42°27' E 009°44'816.9
2019-Sep-12 21:00N 42°18' E 009°45'816.7
2019-Sep-12 20:30N 42°10' E 009°46'816.4
2019-Sep-12 20:00N 42°02' E 009°46'816.2
2019-Sep-12 19:30N 41°54' E 009°46'815.9
2019-Sep-12 19:00N 41°46' E 009°46'4222.5
2019-Sep-12 19:00N 41°48' E 009°42'1122.1 330 / 241025.0 5.4 25.019.125.0
2019-Sep-12 18:30N 41°38' E 009°46'916.6
2019-Sep-12 17:59N 41°29' E 009°47'1216.7
2019-Sep-12 17:16N 41°17' E 009°46'417.3
2019-Sep-12 17:00N 41°13' E 009°45'2139.7
2019-Sep-12 17:00N 41°12' E 009°42'19 9.3 360 / 181024.027.0 24.019.625.6
2019-Sep-12 15:00N 40°54' E 009°36'5 2.3 020 / 121025.010.8 24.019.625.8
2019-Sep-12 13:00N 40°54' E 009°30'0 0.0 070 / 121025.027.0 25.020.720.0
2019-Sep-12 08:00N 40°54' E 009°30'0 0.0 1021.010.8 24.019.624.0
2019-Sep-12 06:00N 40°54' E 009°30'4 3.7 190 / 51016.0 5.4 20.016.924.0
2019-Sep-12 04:48N 40°55' E 009°35'4 9.0
2019-Sep-12 04:22N 40°57' E 009°40'512.3
2019-Sep-12 04:00N 40°54' E 009°36'1830.2 210 / 101023.0 5.4 23.020.125.3
2019-Sep-12 03:23N 41°12' E 009°38'614.6
2019-Sep-12 03:00N 41°12' E 009°30'6177.2 050 / 131022.010.8 23.020.124.8
2019-Sep-12 02:58N 41°18' E 009°32'1714.7
2019-Sep-12 01:47N 41°17' E 009°09'516.4
2019-Sep-12 01:31N 41°17' E 009°03'816.5
2019-Sep-12 01:00N 41°16' E 008°52'917.3
2019-Sep-12 00:30N 41°14' E 008°40'917.4
2019-Sep-12 00:00N 41°13' E 008°29'10812.1
2019-Sep-12 00:00N 41°12' E 008°42'   080 / 71022.010.8 24.019.621.0
Track history (hours):
 
Tides and Currents Weather Stations Pressure Air Temp Water Temp Dewpoint Dewpoint Depression Visibility Wind Speed Wind Dir Waves Ship Positions

Costa Fortuna

Last reported at 2019-Sep-21 23:30 UTC. Time now 2019-Sep-21 23:37 UTC.
Position N 41°44' E 003°09'.

Length 272 m; draft 8.3 m.

Type: Ship. MMSI: 247094800.

Date/timePositionNaut miles runAvg speedWind from/ knotsBaromVisibWave heightAir tempDewpointWater temp
2019-Sep-21 23:30N 41°44' E 003°09'816.5
2019-Sep-21 23:00N 41°49' E 003°18'163 7.1
2019-Sep-21 00:11N 43°01' E 006°36'317.9
2019-Sep-21 00:00N 43°03' E 006°39'917.9
2019-Sep-20 23:31N 43°08' E 006°49'917.8
2019-Sep-20 23:00N 43°12' E 007°00'918.3
2019-Sep-20 22:30N 43°17' E 007°11'918.4
2019-Sep-20 22:00N 43°22' E 007°21'918.5
2019-Sep-20 21:30N 43°28' E 007°31'918.5
2019-Sep-20 21:00N 43°33' E 007°42'918.4
2019-Sep-20 20:30N 43°39' E 007°52'918.3
2019-Sep-20 20:00N 43°45' E 008°01'918.5
2019-Sep-20 19:31N 43°51' E 008°11'918.2
2019-Sep-20 19:00N 43°57' E 008°21'918.0
2019-Sep-20 18:30N 44°03' E 008°30'918.0
2019-Sep-20 18:01N 44°08' E 008°40'917.6
2019-Sep-20 17:30N 44°14' E 008°49'613.0
2019-Sep-20 17:00N 44°18' E 008°56'510.3
2019-Sep-20 16:30N 44°23' E 008°56'1 2.9
2019-Sep-20 16:00N 44°25' E 008°55'0 0.0
2019-Sep-20 15:30N 44°25' E 008°55'0 0.0
2019-Sep-20 15:00N 44°25' E 008°55'0 0.0
2019-Sep-20 14:30N 44°25' E 008°55'0 0.0
2019-Sep-20 14:00N 44°25' E 008°55'0 0.0
2019-Sep-20 13:30N 44°25' E 008°55'0 0.0
2019-Sep-20 12:59N 44°25' E 008°55'0 0.0
2019-Sep-20 12:30N 44°25' E 008°55'0 0.0
2019-Sep-20 12:00N 44°25' E 008°55'0 0.0
2019-Sep-20 11:30N 44°25' E 008°55'0 0.0
2019-Sep-20 11:00N 44°25' E 008°55'0 0.0
2019-Sep-20 10:30N 44°25' E 008°55'0 0.0
2019-Sep-20 10:00N 44°25' E 008°55'0 0.0
2019-Sep-20 09:30N 44°25' E 008°55'0 0.0
2019-Sep-20 09:00N 44°25' E 008°55'0 0.0
2019-Sep-20 08:30N 44°25' E 008°55'0 0.0
2019-Sep-20 08:00N 44°25' E 008°55'0 0.0
2019-Sep-20 07:29N 44°25' E 008°55'0 0.0
2019-Sep-20 07:00N 44°25' E 008°55'0 0.0
2019-Sep-20 06:31N 44°25' E 008°55'1 1.6
2019-Sep-20 06:01N 44°24' E 008°55'3 5.3
2019-Sep-20 05:31N 44°22' E 008°58'510.7
2019-Sep-20 05:01N 44°17' E 009°00'5293.8
2019-Sep-20 05:00N 44°12' E 009°00'3 5.2 300 / 191020.010.8 20.018.523.5
2019-Sep-20 04:31N 44°11' E 009°03'611.8
2019-Sep-20 04:00N 44°05' E 009°06'611.8
2019-Sep-20 03:31N 43°60' E 009°09'714.2
2019-Sep-20 03:01N 43°53' E 009°12'145.1
2019-Sep-20 03:00N 43°54' E 009°12'919.2 240 / 101020.010.8 22.017.523.2
2019-Sep-20 02:31N 43°45' E 009°16'917.0
2019-Sep-20 02:01N 43°37' E 009°20'816.7
2019-Sep-20 01:31N 43°30' E 009°25'816.8
2019-Sep-20 01:01N 43°22' E 009°29'816.8
2019-Sep-20 00:31N 43°14' E 009°35'816.6
2019-Sep-20 00:01N 43°06' E 009°37'6350.2
2019-Sep-20 00:00N 43°12' E 009°36'1429.4 070 / 251019.010.8 23.020.120.0
2019-Sep-19 23:31N 42°58' E 009°40'1020.3
2019-Sep-19 23:00N 42°48' E 009°36'5910.7 060 / 231019.010.8 23.020.120.0
2019-Sep-19 22:59N 42°50' E 009°42'5316.6
2019-Sep-19 19:46N 41°56' E 009°46'416.2
2019-Sep-19 19:30N 41°52' E 009°46'59 7.9
2019-Sep-19 12:00N 40°54' E 009°30'0 0.0 270 / 51016.010.8 27.022.821.0
2019-Sep-19 11:00N 40°54' E 009°30'0 0.0 090 / 81016.010.8 27.022.821.0
2019-Sep-19 06:00N 40°54' E 009°30'18 6.0 210 / 51013.010.8 22.019.022.0
2019-Sep-19 03:00N 41°12' E 009°30'4615.5 230 / 131014.010.8 24.022.625.3
2019-Sep-19 00:03N 41°13' E 008°29'587.2
2019-Sep-19 00:00N 41°12' E 008°36'6967.2 320 / 51015.0 5.4 24.022.620.0
2019-Sep-18 23:59N 41°13' E 008°28'1818.0
2019-Sep-18 23:00N 41°06' E 008°06'8416.8 320 / 41015.0 5.4 24.022.620.0
2019-Sep-18 18:00N 40°24' E 006°30'4120.4 1022.0 5.4
2019-Sep-18 16:00N 39°54' E 005°54'8817.7 340 / 111015.0 5.4 25.022.2
2019-Sep-18 11:00N 39°24' E 004°06'1719.0 300 / 81016.010.8 25.023.621.0
2019-Sep-18 10:07N 39°21' E 003°45'431.6
2019-Sep-18 10:00N 39°18' E 003°48'5474.0 260 / 31016.010.8 25.023.621.0
2019-Sep-18 09:59N 39°20' E 003°42'918.2
2019-Sep-18 09:30N 39°16' E 003°32'918.0
2019-Sep-18 09:00N 39°13' E 003°21'917.8
2019-Sep-18 08:30N 39°09' E 003°11'917.7
2019-Sep-18 08:00N 39°06' E 003°00'917.5
2019-Sep-18 07:30N 39°03' E 002°50'917.7
2019-Sep-18 07:00N 39°01' E 002°38'917.6
2019-Sep-18 06:30N 39°00' E 002°27'917.4
2019-Sep-18 06:01N 38°59' E 002°16'917.5
2019-Sep-18 05:30N 38°57' E 002°05'1017.7
2019-Sep-18 04:56N 38°56' E 001°52'817.8
2019-Sep-18 04:30N 38°55' E 001°42'817.3
2019-Sep-18 04:00N 38°54' E 001°32'4 6.6
2019-Sep-18 03:28N 38°54' E 001°27'0 0.0
2019-Sep-18 02:55N 38°54' E 001°27'0 0.0
2019-Sep-18 02:28N 38°54' E 001°27'0 0.0
2019-Sep-18 01:58N 38°54' E 001°27'0 0.0
2019-Sep-18 01:25N 38°54' E 001°27'2 5.5
2019-Sep-18 01:00N 38°54' E 001°24'272.6 330 / 71016.010.8 24.022.621.0
2019-Sep-18 00:58N 38°54' E 001°27'0 0.0
2019-Sep-18 00:28N 38°54' E 001°27'0 0.0
2019-Sep-17 23:58N 38°54' E 001°27'0 0.0
2019-Sep-17 23:28N 38°54' E 001°27'2 5.0
2019-Sep-17 23:00N 38°54' E 001°24'273.8 340 / 101016.010.8 24.022.621.0
2019-Sep-17 22:58N 38°54' E 001°27'0 0.0
2019-Sep-17 22:31N 38°54' E 001°27'0 0.0
2019-Sep-17 21:58N 38°54' E 001°27'0 0.0
2019-Sep-17 21:28N 38°54' E 001°27'0 0.0
2019-Sep-17 20:58N 38°54' E 001°27'0 0.0
2019-Sep-17 20:25N 38°54' E 001°27'0 0.0
2019-Sep-17 19:58N 38°54' E 001°27'0 0.0
2019-Sep-17 19:31N 38°54' E 001°27'0 0.0
2019-Sep-17 18:58N 38°54' E 001°27'0 0.0
2019-Sep-17 18:28N 38°54' E 001°27'0 0.0
2019-Sep-17 17:58N 38°54' E 001°27'0 0.0
2019-Sep-17 17:28N 38°54' E 001°27'2 5.0
2019-Sep-17 17:00N 38°54' E 001°24'272.0 1014.0 5.4 24.019.624.5
2019-Sep-17 16:58N 38°54' E 001°27'0 0.0
2019-Sep-17 16:25N 38°54' E 001°27'0 0.0
2019-Sep-17 15:52N 38°54' E 001°27'0 0.0
2019-Sep-17 15:28N 38°54' E 001°27'2 5.0
2019-Sep-17 15:00N 38°54' E 001°24'272.6 100 / 101016.010.8 24.019.625.8
2019-Sep-17 14:58N 38°54' E 001°27'0 0.0
2019-Sep-17 14:28N 38°54' E 001°27'0 0.0
2019-Sep-17 13:58N 38°54' E 001°27'0 0.0
2019-Sep-17 13:25N 38°54' E 001°27'2 5.5
2019-Sep-17 13:00N 38°54' E 001°24'273.2 070 / 61017.010.8 27.025.721.0
2019-Sep-17 12:58N 38°54' E 001°27'0 0.0
2019-Sep-17 12:31N 38°54' E 001°27'0 0.0
2019-Sep-17 11:58N 38°54' E 001°27'0 0.0
2019-Sep-17 11:28N 38°54' E 001°27'2 5.0
2019-Sep-17 11:00N 38°54' E 001°24'277.3 130 / 61017.010.8 26.023.222.0
2019-Sep-17 10:58N 38°54' E 001°27'0 0.0
2019-Sep-17 10:28N 38°54' E 001°27'0 0.0
2019-Sep-17 09:58N 38°54' E 001°27'0 0.0
2019-Sep-17 09:28N 38°54' E 001°27'0 0.0
2019-Sep-17 08:58N 38°54' E 001°27'0 0.0
2019-Sep-17 08:28N 38°54' E 001°27'2 5.0
2019-Sep-17 08:00N 38°54' E 001°24'275.2 060 / 91015.0 5.4 24.019.625.0
2019-Sep-17 07:58N 38°54' E 001°27'0 0.0
2019-Sep-17 07:28N 38°54' E 001°27'0 0.0
2019-Sep-17 06:58N 38°54' E 001°27'0 0.0
2019-Sep-17 06:28N 38°54' E 001°27'0 0.4
2019-Sep-17 05:54N 38°54' E 001°27'410.0
2019-Sep-17 05:30N 38°53' E 001°32'714.7
2019-Sep-17 05:00N 38°52' E 001°41'612.5
2019-Sep-17 04:30N 38°51' E 001°49'3 5.9
2019-Sep-17 03:57N 38°51' E 001°53'1 2.6
2019-Sep-17 03:26N 38°51' E 001°55'3 8.0
2019-Sep-17 03:00N 38°48' E 001°54'2211.6 260 / 91016.010.8 24.022.624.5
2019-Sep-17 01:06N 38°59' E 002°19'55497.9
2019-Sep-17 01:00N 39°54' E 002°18'54855.1 090 / 131018.0 5.4 24.021.120.0
2019-Sep-17 00:56N 38°60' E 002°21'610.8
2019-Sep-17 00:24N 39°03' E 002°27'410.7
2019-Sep-17 00:00N 39°05' E 002°31'510.3
2019-Sep-16 23:30N 39°10' E 002°34'510.4
2019-Sep-16 23:00N 39°15' E 002°37'10897.3
2019-Sep-16 23:00N 39°06' E 002°30'1531.4 060 / 41018.010.8 24.022.620.0
2019-Sep-16 22:30N 39°20' E 002°39'510.7
2019-Sep-16 22:00N 39°25' E 002°39'510.7
2019-Sep-16 21:30N 39°31' E 002°39'3 5.2
2019-Sep-16 21:00N 39°33' E 002°38'0 0.0
2019-Sep-16 20:30N 39°33' E 002°38'0 0.0
2019-Sep-16 20:00N 39°33' E 002°38'0 0.0
2019-Sep-16 19:30N 39°33' E 002°38'0 0.0
2019-Sep-16 18:56N 39°33' E 002°38'0 0.0
2019-Sep-16 18:27N 39°33' E 002°38'0 0.0
2019-Sep-16 18:00N 39°33' E 002°38'0 0.0
2019-Sep-16 17:30N 39°33' E 002°38'0 0.0
2019-Sep-16 17:00N 39°33' E 002°38'0 0.0
2019-Sep-16 16:29N 39°33' E 002°38'0 0.0
2019-Sep-16 16:00N 39°33' E 002°38'0 0.0
2019-Sep-16 15:30N 39°33' E 002°38'0 0.0
2019-Sep-16 15:00N 39°33' E 002°38'0 0.0
2019-Sep-16 14:30N 39°33' E 002°38'0 0.0
2019-Sep-16 14:00N 39°33' E 002°38'0 0.0
2019-Sep-16 13:30N 39°33' E 002°38'0 0.0
2019-Sep-16 13:00N 39°33' E 002°38'0 0.0
2019-Sep-16 12:29N 39°33' E 002°38'0 0.0
2019-Sep-16 11:59N 39°33' E 002°38'0 0.0
2019-Sep-16 11:14N 39°33' E 002°38'1562.3
2019-Sep-16 11:00N 39°18' E 002°36'153226.1 090 / 121018.0 5.4 27.021.320.0
2019-Sep-16 10:59N 39°33' E 002°38'0 0.0
2019-Sep-16 10:29N 39°33' E 002°38'0 0.0
2019-Sep-16 09:56N 39°33' E 002°38'0 0.0
2019-Sep-16 09:29N 39°33' E 002°38'0 0.0
2019-Sep-16 08:59N 39°33' E 002°38'0 0.0
2019-Sep-16 08:30N 39°33' E 002°38'0 0.0
2019-Sep-16 08:00N 39°33' E 002°38'0 0.0
2019-Sep-16 06:24N 39°33' E 002°38'0 1.3
2019-Sep-16 06:00N 39°33' E 002°39'4332.6
2019-Sep-16 06:00N 39°30' E 002°36'3 6.6 360 / 131016.0 5.4 24.019.625.0
2019-Sep-16 05:30N 39°32' E 002°39'4 8.5
2019-Sep-16 05:00N 39°28' E 002°37'510.7
2019-Sep-16 04:30N 39°24' E 002°33'610.9
2019-Sep-16 04:00N 39°26' E 002°26'83557.4
2019-Sep-16 04:00N 39°24' E 002°36'1327.2 040 / 201017.010.8 24.019.624.8
2019-Sep-16 03:30N 39°29' E 002°20'612.4
2019-Sep-16 03:00N 39°30' E 002°12'1512.6 030 / 101017.010.8 24.019.625.0
2019-Sep-16 01:47N 39°44' E 002°06'5 6.3
2019-Sep-16 01:00N 39°42' E 002°00'8 7.6 030 / 181018.0 5.4 24.022.6
2019-Sep-16 00:00N 39°48' E 001°54'7114.3 040 / 221018.0 5.4 24.022.621.0
2019-Sep-15 19:00N 40°55' E 001°20'137806.6
2019-Sep-15 19:00N 40°42' E 001°24'2127.9 040 / 371017.010.8 23.020.125.0
2019-Sep-15 18:14N 41°02' E 001°15'832.9
2019-Sep-15 18:00N 40°54' E 001°18'1260.1 050 / 241018.010.8 23.020.125.0
2019-Sep-15 17:48N 41°05' E 001°13'0 0.4
2019-Sep-15 17:18N 41°05' E 001°13'110360.1
2019-Sep-15 17:00N 41°00' W 001°12'10918.1 090 / 261020.010.8 24.019.625.0
2019-Sep-15 11:00N 41°00' E 001°12'567.3 050 / 241022.010.8 25.019.120.0
2019-Sep-15 10:55N 41°05' E 001°13'1 0.1
2019-Sep-15 05:33N 41°05' E 001°12'1 5.0
2019-Sep-15 05:17N 41°03' E 001°13'311.4
2019-Sep-15 05:00N 41°00' E 001°12'6791.1 020 / 111022.010.8 22.020.523.8
2019-Sep-15 04:59N 41°03' E 001°19'816.4
2019-Sep-15 04:30N 41°04' E 001°29'815.4
2019-Sep-15 04:00N 41°05' E 001°39'713.4
2019-Sep-15 03:30N 41°06' E 001°48'714.0
2019-Sep-15 03:00N 41°07' E 001°57'7486.7
2019-Sep-15 03:00N 41°06' E 001°48'1429.2 040 / 141022.010.8 22.020.524.0
2019-Sep-15 02:30N 41°09' E 002°06'714.2
2019-Sep-15 02:00N 41°10' E 002°16'713.6
2019-Sep-15 01:30N 41°15' E 002°22'815.3
2019-Sep-15 01:00N 41°20' E 002°30'12730.6
2019-Sep-15 01:00N 41°12' E 002°18'2143.4 040 / 251023.027.0 21.019.520.0
2019-Sep-15 00:31N 41°26' E 002°39'917.8
2019-Sep-15 00:00N 41°31' E 002°49'1017.9
2019-Sep-14 23:28N 41°37' E 002°59'511.0
2019-Sep-14 23:00N 41°36' E 003°06'3422.2 010 / 111024.0 5.4 21.019.520.0
2019-Sep-14 21:27N 42°02' E 003°36'1419.5
2019-Sep-14 20:44N 42°12' E 003°49'419.2
2019-Sep-14 20:31N 42°15' E 003°53'918.9
2019-Sep-14 20:01N 42°22' E 004°02'918.6
2019-Sep-14 19:31N 42°28' E 004°11'918.5
2019-Sep-14 19:01N 42°35' E 004°20'15883.8
2019-Sep-14 19:00N 42°24' E 004°06'2449.8 060 / 91023.010.8 22.017.525.0
2019-Sep-14 18:30N 42°42' E 004°28'1 2.4
2019-Sep-14 18:00N 42°42' E 004°30'1817.8 140 / 91023.0 5.4 23.018.525.0
2019-Sep-14 17:00N 42°54' E 004°48'32 8.1 150 / 101024.010.8 26.021.825.3
2019-Sep-14 13:00N 43°18' E 005°18'3 2.8 270 / 81025.0 5.4 25.020.720.0
2019-Sep-14 11:55N 43°21' E 005°20'3 3.3
2019-Sep-14 11:00N 43°18' E 005°18'0 0.0 1025.0 5.4 24.019.621.0
2019-Sep-14 06:00N 43°18' E 005°18'2 1.7 1023.0 5.4 23.016.925.0
2019-Sep-14 04:38N 43°18' E 005°15'1 9.1
2019-Sep-14 04:31N 43°17' E 005°15'510.6
2019-Sep-14 04:00N 43°12' E 005°12'4218.9 050 / 91026.010.8 23.020.122.9
2019-Sep-14 03:58N 43°12' E 005°18'6 5.8
2019-Sep-14 03:00N 43°06' E 005°18'1843.7 330 / 61025.010.8 23.020.123.5
2019-Sep-14 02:35N 43°01' E 005°41'217.7
2019-Sep-14 02:29N 42°60' E 005°44'13 9.0
2019-Sep-14 01:00N 42°54' E 006°00'2243.4 270 / 81026.010.8 24.021.120.0
2019-Sep-14 00:29N 42°57' E 006°30'918.4
2019-Sep-14 00:00N 43°02' E 006°40'918.0
2019-Sep-13 23:30N 43°07' E 006°50'918.5
2019-Sep-13 23:01N 43°12' E 007°01'7434.2
2019-Sep-13 23:00N 43°06' E 006°54'1734.9 320 / 71026.010.8 24.021.120.0
2019-Sep-13 22:30N 43°17' E 007°11'918.7
2019-Sep-13 22:01N 43°23' E 007°22'918.5
2019-Sep-13 21:30N 43°28' E 007°32'918.5
2019-Sep-13 21:00N 43°33' E 007°42'918.5
2019-Sep-13 20:31N 43°39' E 007°52'918.4
2019-Sep-13 20:00N 43°45' E 008°02'4233.1
2019-Sep-13 20:00N 43°42' E 008°00'1326.1 030 / 131023.0 5.4 26.020.224.0
2019-Sep-13 19:31N 43°51' E 008°12'918.3
2019-Sep-13 19:01N 43°57' E 008°21'918.3
2019-Sep-13 18:30N 44°04' E 008°31'917.7
2019-Sep-13 18:01N 44°09' E 008°40'12696.9
2019-Sep-13 18:00N 44°00' E 008°30'2041.6 260 / 91023.0 5.4 26.020.224.0
2019-Sep-13 17:31N 44°15' E 008°49'611.5
2019-Sep-13 17:01N 44°18' E 008°56'8488.4
2019-Sep-13 17:00N 44°12' E 008°48'1326.5 220 / 141015.010.8 25.023.625.5
2019-Sep-13 16:31N 44°23' E 008°56'2 3.5
2019-Sep-13 15:59N 44°25' E 008°55'0 0.0
2019-Sep-13 15:29N 44°25' E 008°55'0 0.0
2019-Sep-13 14:59N 44°25' E 008°55'0 0.0
2019-Sep-13 14:29N 44°25' E 008°55'1 1.9
2019-Sep-13 14:00N 44°24' E 008°54'1179.6 150 / 61026.010.8 27.018.125.3
2019-Sep-13 13:59N 44°25' E 008°55'0 0.0
2019-Sep-13 13:29N 44°25' E 008°55'0 0.0
2019-Sep-13 12:59N 44°25' E 008°55'0 0.0
2019-Sep-13 12:29N 44°25' E 008°55'1 1.9
2019-Sep-13 12:00N 44°24' E 008°54'1155.1 160 / 101028.027.0 31.022.722.0
2019-Sep-13 11:59N 44°25' E 008°55'0 0.0
2019-Sep-13 11:29N 44°25' E 008°55'1 1.9
2019-Sep-13 11:00N 44°24' E 008°54'1162.5 160 / 101027.027.0 31.024.222.0
2019-Sep-13 10:59N 44°25' E 008°55'0 0.0
2019-Sep-13 10:29N 44°25' E 008°55'0 0.0
2019-Sep-13 09:59N 44°25' E 008°55'0 0.0
2019-Sep-13 09:29N 44°25' E 008°55'0 0.0
2019-Sep-13 08:59N 44°25' E 008°55'0 0.0
2019-Sep-13 08:29N 44°25' E 008°55'0 0.0
2019-Sep-13 07:59N 44°25' E 008°55'0 0.0
2019-Sep-13 07:29N 44°25' E 008°55'0 0.0
2019-Sep-13 06:59N 44°25' E 008°55'0 0.0
2019-Sep-13 06:29N 44°25' E 008°55'1 1.6
2019-Sep-13 06:00N 44°24' E 008°55'3 5.4
2019-Sep-13 05:30N 44°22' E 008°58'510.3
2019-Sep-13 05:00N 44°17' E 009°00'5367.2
2019-Sep-13 05:00N 44°12' E 009°00'2 4.6 320 / 11028.010.8 23.020.123.5
2019-Sep-13 04:31N 44°12' E 009°03'611.0
2019-Sep-13 04:00N 44°07' E 009°06'510.3
2019-Sep-13 03:31N 44°02' E 009°08'510.6
2019-Sep-13 03:00N 43°57' E 009°10'4294.3
2019-Sep-13 03:00N 43°54' E 009°06'613.4 250 / 41027.010.8 23.020.123.3
2019-Sep-13 02:30N 43°50' E 009°13'1717.4
2019-Sep-13 01:30N 43°34' E 009°22'917.3
2019-Sep-13 01:00N 43°26' E 009°26'3170.9
2019-Sep-13 01:00N 43°24' E 009°24'816.2 040 / 151026.027.0 25.019.120.0
2019-Sep-13 00:30N 43°18' E 009°31'917.8
2019-Sep-13 00:00N 43°09' E 009°35'917.9
2019-Sep-12 23:30N 43°01' E 009°39'917.5
2019-Sep-12 23:00N 42°52' E 009°42'6376.0
2019-Sep-12 23:00N 42°48' E 009°36'612.9 040 / 201026.027.0 24.019.620.0
2019-Sep-12 22:30N 42°44' E 009°42'917.0
2019-Sep-12 22:00N 42°35' E 009°43'917.1
2019-Sep-12 21:30N 42°27' E 009°44'816.9
2019-Sep-12 21:00N 42°18' E 009°45'816.7
2019-Sep-12 20:30N 42°10' E 009°46'816.4
2019-Sep-12 20:00N 42°02' E 009°46'816.2
2019-Sep-12 19:30N 41°54' E 009°46'815.9
2019-Sep-12 19:00N 41°46' E 009°46'4222.5
2019-Sep-12 19:00N 41°48' E 009°42'1122.1 330 / 241025.0 5.4 25.019.125.0
2019-Sep-12 18:30N 41°38' E 009°46'916.6
2019-Sep-12 17:59N 41°29' E 009°47'1216.7
2019-Sep-12 17:16N 41°17' E 009°46'417.3
2019-Sep-12 17:00N 41°13' E 009°45'2139.7
2019-Sep-12 17:00N 41°12' E 009°42'19 9.3 360 / 181024.027.0 24.019.625.6
2019-Sep-12 15:00N 40°54' E 009°36'5 2.3 020 / 121025.010.8 24.019.625.8
2019-Sep-12 13:00N 40°54' E 009°30'0 0.0 070 / 121025.027.0 25.020.720.0
2019-Sep-12 08:00N 40°54' E 009°30'0 0.0 1021.010.8 24.019.624.0
2019-Sep-12 06:00N 40°54' E 009°30'4 3.7 190 / 51016.0 5.4 20.016.924.0
2019-Sep-12 04:48N 40°55' E 009°35'4 9.0
2019-Sep-12 04:22N 40°57' E 009°40'512.3
2019-Sep-12 04:00N 40°54' E 009°36'1830.2 210 / 101023.0 5.4 23.020.125.3
2019-Sep-12 03:23N 41°12' E 009°38'614.6
2019-Sep-12 03:00N 41°12' E 009°30'6177.2 050 / 131022.010.8 23.020.124.8
2019-Sep-12 02:58N 41°18' E 009°32'1714.7
2019-Sep-12 01:47N 41°17' E 009°09'516.4
2019-Sep-12 01:31N 41°17' E 009°03'816.5
2019-Sep-12 01:00N 41°16' E 008°52'917.3
2019-Sep-12 00:30N 41°14' E 008°40'917.4
2019-Sep-12 00:00N 41°13' E 008°29'10812.1
2019-Sep-12 00:00N 41°12' E 008°42'   080 / 71022.010.8 24.019.621.0

Dump ship's entire track history